createdAt,value
2022-09-18T00:00:35.781Z,76.11
2022-09-18T00:05:44.492Z,76.31
2022-09-18T00:10:51.225Z,76.28
2022-09-18T00:15:59.478Z,76.63
2022-09-18T00:21:06.897Z,77.03
2022-09-18T00:26:16.319Z,76.74
2022-09-18T00:31:23.152Z,76.73
2022-09-18T00:36:30.975Z,76.57
2022-09-18T00:41:39.425Z,76.67
2022-09-18T00:46:46.663Z,77.11
2022-09-18T00:51:55.009Z,76.92
2022-09-18T00:57:02.404Z,76.07
2022-09-18T01:02:10.554Z,76.0
2022-09-18T01:07:18.061Z,74.95
2022-09-18T01:12:25.268Z,74.55
2022-09-18T01:17:33.118Z,73.72
2022-09-18T01:22:40.823Z,74.57
2022-09-18T01:27:48.526Z,74.9
2022-09-18T01:32:56.367Z,75.08
2022-09-18T01:38:04.365Z,75.97
2022-09-18T01:43:13.175Z,74.44
2022-09-18T01:48:20.777Z,74.84
2022-09-18T01:53:27.990Z,75.69
2022-09-18T01:58:35.207Z,75.84
2022-09-18T02:03:49.468Z,75.2
2022-09-18T02:08:56.590Z,76.21
2022-09-18T02:14:03.785Z,76.7
2022-09-18T02:19:12.666Z,77.61
2022-09-18T02:24:21.749Z,77.53
2022-09-18T02:29:30.376Z,76.02
2022-09-18T02:34:38.806Z,75.68
2022-09-18T02:42:48.603Z,73.16
2022-09-18T02:47:53.222Z,72.57
2022-09-18T02:53:01.110Z,72.75
2022-09-18T02:58:09.206Z,72.8
2022-09-18T03:03:16.404Z,73.13
2022-09-18T03:08:24.693Z,72.97
2022-09-18T03:13:32.425Z,73.46
2022-09-18T03:18:39.810Z,73.11
2022-09-18T03:23:48.648Z,72.68
2022-09-18T03:28:57.750Z,72.65
2022-09-18T03:34:06.486Z,72.56
2022-09-18T03:39:15.623Z,72.26
2022-09-18T03:44:22.602Z,72.92
2022-09-18T03:49:29.684Z,72.74
2022-09-18T03:54:37.059Z,72.17
2022-09-18T03:59:44.550Z,73.02
2022-09-18T04:04:52.629Z,73.6
2022-09-18T04:10:07.614Z,73.52
2022-09-18T04:15:16.187Z,73.81
2022-09-18T04:20:24.263Z,73.96
2022-09-18T04:25:31.830Z,73.53
2022-09-18T04:30:39.201Z,73.82
2022-09-18T04:35:46.818Z,73.73001
2022-09-18T04:40:55.810Z,73.49
2022-09-18T04:46:03.142Z,73.03
2022-09-18T04:51:11.299Z,72.43
2022-09-18T04:56:18.810Z,72.85
2022-09-18T05:01:27.798Z,72.73
2022-09-18T05:06:35.339Z,72.51
2022-09-18T05:11:42.961Z,72.68
2022-09-18T05:16:51.066Z,73.25
2022-09-18T05:21:58.487Z,72.9
2022-09-18T05:27:07.001Z,72.32
2022-09-18T05:32:15.270Z,72.81
2022-09-18T05:37:24.234Z,73.77
2022-09-18T05:42:32.681Z,73.73001
2022-09-18T05:47:41.230Z,73.44
2022-09-18T05:52:49.891Z,72.96
2022-09-18T05:57:57.544Z,73.16
2022-09-18T06:03:05.858Z,71.55
2022-09-18T06:08:14.221Z,71.86
2022-09-18T06:13:22.699Z,71.05
2022-09-18T06:18:30.391Z,71.44001
2022-09-18T06:23:38.502Z,70.71
2022-09-18T06:28:45.679Z,70.51
2022-09-18T06:33:54.699Z,69.88
2022-09-18T06:39:06.795Z,64.62
2022-09-18T06:44:16.305Z,59.82
2022-09-18T06:49:24.396Z,58.12
2022-09-18T06:54:33.219Z,48.79
2022-09-18T06:59:43.570Z,46.91
2022-09-18T07:04:54.728Z,47.18
2022-09-18T07:10:10.215Z,45.23
2022-09-18T07:15:19.750Z,49.29
2022-09-18T07:20:34.702Z,53.83
2022-09-18T07:25:43.139Z,56.72
2022-09-18T07:30:53.746Z,54.09
2022-09-18T07:36:01.884Z,48.88
2022-09-18T07:41:08.737Z,45.45
2022-09-18T07:46:17.047Z,45.11
2022-09-18T07:51:24.988Z,45.72
2022-09-18T07:56:32.864Z,50.5
2022-09-18T08:01:48.789Z,47.46
2022-09-18T08:06:56.356Z,52.22
2022-09-18T08:12:04.098Z,55.86
2022-09-18T08:17:10.017Z,74.46
2022-09-18T08:22:17.355Z,80.58001
2022-09-18T08:27:25.243Z,84.2
2022-09-18T08:32:33.220Z,86.92
2022-09-18T08:37:41.113Z,84.21
2022-09-18T08:42:48.566Z,84.51
2022-09-18T08:47:56.378Z,86.02
2022-09-18T08:53:02.974Z,84.16
2022-09-18T08:58:10.813Z,82.98
2022-09-18T09:03:21.231Z,83.65001
2022-09-18T09:08:30.159Z,80.35
2022-09-18T09:13:39.461Z,81.08001
2022-09-18T09:18:46.027Z,81.61
2022-09-18T09:23:54.507Z,74.47
2022-09-18T09:29:03.033Z,72.41001
2022-09-18T09:34:10.788Z,68.13
2022-09-18T09:39:18.603Z,68.84
2022-09-18T09:44:27.113Z,64.89
2022-09-18T09:49:35.414Z,62.38
2022-09-18T09:54:42.359Z,62.06
2022-09-18T09:59:50.618Z,59.28
2022-09-18T10:04:58.536Z,60.67
2022-09-18T10:10:06.564Z,56.45
2022-09-18T10:15:22.303Z,53.84
2022-09-18T10:20:29.693Z,50.42
2022-09-18T10:25:36.908Z,51.09
2022-09-18T10:30:44.466Z,49.73
2022-09-18T10:35:52.475Z,49.33
2022-09-18T10:41:00.126Z,48.13
2022-09-18T10:46:08.195Z,47.38
2022-09-18T10:51:17.242Z,46.98
2022-09-18T10:56:23.939Z,49.4
2022-09-18T11:01:32.048Z,48.95
2022-09-18T11:06:39.725Z,49.86
2022-09-18T11:11:48.056Z,48.3
2022-09-18T11:16:54.726Z,49.38
2022-09-18T11:22:03.256Z,48.37
2022-09-18T11:27:11.182Z,50.79
2022-09-18T11:32:18.190Z,52.87
2022-09-18T11:37:25.854Z,58.62
2022-09-18T11:42:33.874Z,57.79
2022-09-18T11:47:40.432Z,58.09
2022-09-18T11:52:50.067Z,56.54
2022-09-18T11:57:57.824Z,54.32
2022-09-18T12:03:05.825Z,54.88
2022-09-18T12:08:11.114Z,54.08
2022-09-18T12:13:19.713Z,55.03
2022-09-18T12:18:26.832Z,54.34
2022-09-18T12:23:32.697Z,57.01
2022-09-18T12:28:40.731Z,58.04
2022-09-18T12:33:47.986Z,57.78
2022-09-18T12:38:55.546Z,57.7
2022-09-18T12:44:08.519Z,59.09
2022-09-18T12:49:56.672Z,58.74
2022-09-18T12:55:03.865Z,58.65
2022-09-18T13:00:12.585Z,60.12
2022-09-18T13:05:21.450Z,60.91
2022-09-18T13:10:28.274Z,61.64
2022-09-18T13:15:36.940Z,59.6
2022-09-18T13:20:44.466Z,59.02
2022-09-18T13:25:52.753Z,57.05
2022-09-18T13:31:00.687Z,57.66
2022-09-18T13:36:08.740Z,57.57
2022-09-18T13:41:17.162Z,58.45
2022-09-18T13:46:25.564Z,56.77
2022-09-18T13:51:34.058Z,58.75
2022-09-18T13:56:41.389Z,60.56
2022-09-18T14:01:49.186Z,62.22
2022-09-18T14:06:57.849Z,62.25
2022-09-18T14:12:05.955Z,61.64
2022-09-18T14:17:14.457Z,62.46
2022-09-18T14:22:22.231Z,62.23
2022-09-18T14:27:30.285Z,62.64
2022-09-18T14:32:38.367Z,64.16
2022-09-18T14:37:45.178Z,64.04
2022-09-18T14:42:53.090Z,64.62
2022-09-18T14:48:01.268Z,64.29
2022-09-18T14:53:08.746Z,65.53
2022-09-18T14:58:16.319Z,65.51
2022-09-18T15:03:23.504Z,66.8
2022-09-18T15:08:30.633Z,68.01
2022-09-18T15:13:39.112Z,67.14
2022-09-18T15:18:48.799Z,67.98
2022-09-18T15:23:56.091Z,67.75
2022-09-18T15:29:03.706Z,68.08
2022-09-18T15:34:11.292Z,68.26
2022-09-18T15:39:18.629Z,68.52
2022-09-18T15:44:26.868Z,69.04
2022-09-18T15:49:34.340Z,69.96
2022-09-18T15:54:41.535Z,70.42
2022-09-18T15:59:49.881Z,71.63
2022-09-18T16:04:58.105Z,72.31
2022-09-18T16:10:06.949Z,72.9
2022-09-18T16:15:15.245Z,73.91
2022-09-18T16:20:22.692Z,75.53
2022-09-18T16:25:30.994Z,76.5
2022-09-18T16:30:39.027Z,76.94
2022-09-18T16:35:46.168Z,78.12
2022-09-18T16:40:54.562Z,78.53
2022-09-18T16:46:01.854Z,78.55
2022-09-18T16:51:10.075Z,78.54
2022-09-18T16:56:17.580Z,78.48001
2022-09-18T17:01:29.666Z,78.28
2022-09-18T17:06:37.102Z,78.86
2022-09-18T17:11:45.623Z,79.59
2022-09-18T17:16:53.520Z,78.85
2022-09-18T17:22:01.975Z,77.18
2022-09-18T17:27:10.703Z,75.51
2022-09-18T17:32:18.820Z,74.2
2022-09-18T17:37:27.181Z,74.21
2022-09-18T17:42:33.864Z,73.59
2022-09-18T17:47:42.835Z,73.08
2022-09-18T17:52:50.670Z,73.39
2022-09-18T17:57:58.980Z,72.8
2022-09-18T18:03:06.236Z,72.64
2022-09-18T18:08:14.852Z,72.58
2022-09-18T18:13:23.192Z,73.73001
2022-09-18T18:18:31.346Z,73.5
2022-09-18T18:23:39.293Z,73.56
2022-09-18T18:28:46.982Z,73.44
2022-09-18T18:33:54.508Z,73.67
2022-09-18T18:39:03.173Z,73.78
2022-09-18T18:44:10.497Z,73.56
2022-09-18T18:49:17.757Z,73.62
2022-09-18T18:54:24.251Z,74.2
2022-09-18T18:59:31.891Z,73.99
2022-09-18T19:04:39.298Z,74.7
2022-09-18T19:09:47.128Z,73.91
2022-09-18T19:14:55.113Z,74.66001
2022-09-18T19:20:02.179Z,74.99
2022-09-18T19:25:09.568Z,74.65
2022-09-18T19:30:17.340Z,74.73001
2022-09-18T19:35:25.904Z,74.33
2022-09-18T19:40:34.009Z,74.73001
2022-09-18T19:45:42.531Z,75.18
2022-09-18T19:50:49.873Z,75.7
2022-09-18T19:55:57.399Z,76.1
2022-09-18T20:01:04.842Z,76.38
2022-09-18T20:06:12.102Z,76.59
2022-09-18T20:11:20.450Z,76.21
2022-09-18T20:16:27.601Z,75.81
2022-09-18T20:21:38.182Z,75.85
2022-09-18T20:26:45.381Z,75.62
2022-09-18T20:31:52.578Z,74.81
2022-09-18T20:37:01.813Z,74.97
2022-09-18T20:42:10.454Z,74.3
2022-09-18T20:47:18.614Z,74.04
2022-09-18T20:52:26.936Z,73.93
2022-09-18T20:57:34.348Z,73.27
2022-09-18T21:02:42.055Z,73.3
2022-09-18T21:07:48.784Z,72.85
2022-09-18T21:12:57.415Z,72.52
2022-09-18T21:18:05.115Z,71.96
2022-09-18T21:23:12.413Z,72.16001
2022-09-18T21:28:27.777Z,71.63
2022-09-18T21:33:34.852Z,71.26
2022-09-18T21:38:43.823Z,71.21
2022-09-18T21:43:51.676Z,71.81
2022-09-18T21:48:59.568Z,71.25
2022-09-18T21:54:09.048Z,71.24
2022-09-18T21:59:16.747Z,71.62
2022-09-18T22:04:24.150Z,71.5
2022-09-18T22:09:31.340Z,70.8
2022-09-18T22:14:39.223Z,70.21
2022-09-18T22:19:47.304Z,70.05001
2022-09-18T22:24:54.079Z,69.88
2022-09-18T22:30:01.824Z,69.78
2022-09-18T22:35:10.123Z,70.46
2022-09-18T22:40:18.709Z,70.57
2022-09-18T22:45:25.437Z,70.38
2022-09-18T22:50:34.151Z,69.79
2022-09-18T22:55:41.702Z,70.3
2022-09-18T23:00:50.233Z,70.59
2022-09-18T23:05:57.927Z,70.9
2022-09-18T23:11:05.911Z,70.36
2022-09-18T23:16:13.653Z,70.68
2022-09-18T23:21:20.922Z,70.26
2022-09-18T23:26:28.172Z,69.4
2022-09-18T23:31:35.799Z,69.98001
2022-09-18T23:36:43.790Z,69.95
2022-09-18T23:41:51.619Z,69.66001
2022-09-18T23:46:59.002Z,69.64
2022-09-18T23:52:07.118Z,69.92
2022-09-18T23:57:14.555Z,70.3
